Airfield :
LOGIN :

Register | Disclaimer

   EN    FR    IT 

 










Legend :    VFR   Marginal VFR   IFR   Intensive IFR   Very Intensive IFR
Visi :
Ceiling :
>= 8 km
>= 3000ft
5 to 8 km
1000 to 3000 ft
1500m to 5 km
500 to 1000 ft
800 to 1500m
200 to 500 ft
< 800m
< 200 ft
Symbols :   Thunderstorms  Fog  Heavy snow  Heavy precipitations  Wind > 20 kt
SIGMETs :     Misc.  Thunderstorms  Icing  Turbulence  Mountain Waves  Volcanic Ashes







- Airport Elevation : 160 ft
- IATA code : LRT
- Download approach charts


LFRH - Lorient Lann Bihoue

CURRENT METAR :
  • 262130Z AUTO 08003KT 0800 0550 R25/1100U R07/0450D FG VV/// 10/09 Q1021 BECMG 2000 BR BKN005

EXPIRED METARs :
  • 262100Z AUTO 08002KT 6000 1500 R25/1000U SCT004 10/09 Q1021 BECMG 2000 BR BKN005
  • 262030Z AUTO 00000KT 6000 1200 R25/P2000 R07/1200D FEW005 11/10 Q1022 BECMG 2000 BR BKN005
  • 262000Z AUTO 00000KT CAVOK 11/11 Q1022 BECMG 2000 BR
  • 261930Z AUTO 00000KT 6000 0750 R25/P2000 R07/1600D BCFG NSC 11/10 Q1022 BECMG 2000 BR
  • 261900Z AUTO 00000KT 1300 0650 R25/P2000 R07/1300D BCFG NSC 12/11 Q1022 BECMG 2000 BR

TAF TAF LFRH
Valid from the 26 at 18:00 until the 27 at 18:00 UTC


261700Z 2618/2718 20003KT CAVOK
BECMG 2620/2622 VRB01KT 2000 BR
BECMG 2622/2624 BKN005
BECMG 2700/2702 07005KT BKN002 BKN005
PROB30
TEMPO 2701/2706 0700 FG VV///
BECMG 2707/2709 9999 NSW BKN005 OVC012
BECMG 2709/2711 17010KT SCT010
TEMPO 2715/2718 2000 RADZ OVC002
No reported NOTAMs for that airfield.



MET'MAP, your aeronautical weather chart ! - Copyright ORBIFLY December 2007 - Disclaimer

ORBIFLY MET'MAP TEAM :

Programming & Development : Alexandra Zaïnal
Concept & Development : Baudouin d'Aumeries
Co-Development & Prog : Marc-Olivier Méhu
Technical & hardware support : Manuel Goepfert

Contact : metmap@orbifly.com




SOURCES & CREDITS :

   NOAA